Time;durP1;ratioP1;P1;durP2;ratioP2;P2;SDS_P1;SDS_P2;PMS_P1;PMS_P2;Temp;Humidity;BMP_temperature;BMP_pressure;BME280_temperature;BME280_humidity;BME280_pressure;Samples;Min_cycle;Max_cycle;Signal;HPM_P1;HPM_P2
2022/03/07 00:00:47;;;;;;;33.65;20.65;;;3.30;99.90;;;;;;5033736;28;20032;-91
2022/03/07 00:03:13;;;;;;;32.40;21.30;;;2.70;99.90;;;;;;5033737;28;20030;-91
2022/03/07 00:05:39;;;;;;;35.05;21.90;;;2.40;99.90;;;;;;5033143;28;20378;-91
2022/03/07 00:08:05;;;;;;;32.17;20.90;;;2.60;99.90;;;;;;5033742;28;20044;-92
2022/03/07 00:10:31;;;;;;;32.10;22.20;;;2.60;99.90;;;;;;5032906;28;20026;-92
2022/03/07 00:12:56;;;;;;;30.10;20.00;;;2.90;99.90;;;;;;5032541;28;20075;-91
2022/03/07 00:15:22;;;;;;;31.80;20.38;;;3.00;99.90;;;;;;5031850;28;20501;-92
2022/03/07 00:17:47;;;;;;;30.58;20.55;;;2.70;99.90;;;;;;5046664;28;20143;-91
2022/03/07 00:20:13;;;;;;;29.65;19.98;;;2.60;99.90;;;;;;5053311;28;20032;-91
2022/03/07 00:22:39;;;;;;;31.23;21.35;;;2.70;99.90;;;;;;5048779;28;20127;-92
2022/03/07 00:25:05;;;;;;;35.38;23.15;;;2.80;99.90;;;;;;5033282;28;20053;-92
2022/03/07 00:27:31;;;;;;;31.60;21.60;;;2.80;99.90;;;;;;5016369;28;20116;-90
2022/03/07 00:29:57;;;;;;;30.48;21.23;;;2.80;99.90;;;;;;5033106;28;20497;-91
2022/03/07 00:32:22;;;;;;;31.40;22.05;;;2.90;99.90;;;;;;5033698;28;20026;-92
2022/03/07 00:34:48;;;;;;;32.90;23.10;;;2.80;99.90;;;;;;5033050;28;20099;-92
2022/03/07 00:37:14;;;;;;;29.92;21.55;;;3.10;99.90;;;;;;5015566;28;20506;-91
2022/03/07 00:39:40;;;;;;;30.48;20.52;;;2.80;99.90;;;;;;4996415;28;20022;-92
2022/03/07 00:42:05;;;;;;;28.83;19.88;;;3.30;99.90;;;;;;5017926;28;20096;-92
2022/03/07 00:44:31;;;;;;;29.63;20.30;;;2.40;99.90;;;;;;5019996;28;20026;-92
2022/03/07 00:46:57;;;;;;;30.92;20.63;;;2.40;99.90;;;;;;5037267;28;20540;-91
2022/03/07 00:49:22;;;;;;;31.42;20.92;;;2.10;99.90;;;;;;5036140;28;20023;-91
2022/03/07 00:51:48;;;;;;;30.00;19.88;;;2.10;99.90;;;;;;5037538;28;20033;-92
2022/03/07 00:54:14;;;;;;;31.20;20.50;;;2.30;99.90;;;;;;5031298;28;20117;-91
2022/03/07 00:56:39;;;;;;;32.55;20.88;;;2.80;99.90;;;;;;5035570;28;20076;-92
2022/03/07 00:59:06;;;;;;;32.88;21.33;;;2.30;99.90;;;;;;5031107;28;20055;-91
2022/03/07 01:01:31;;;;;;;31.58;20.70;;;2.20;99.90;;;;;;5036911;28;20481;-92
2022/03/07 01:03:57;;;;;;;31.05;20.15;;;2.20;99.90;;;;;;5019326;28;20152;-91
2022/03/07 01:06:23;;;;;;;30.38;20.30;;;2.40;99.90;;;;;;5019451;28;20034;-91
2022/03/07 01:08:48;;;;;;;29.92;19.90;;;2.50;99.90;;;;;;5022816;28;20025;-92
2022/03/07 01:11:14;;;;;;;31.27;19.83;;;2.50;99.90;;;;;;5019353;28;20025;-92
2022/03/07 01:13:40;;;;;;;31.00;19.70;;;2.50;99.90;;;;;;5014493;28;20049;-91
2022/03/07 01:16:06;;;;;;;29.25;19.42;;;2.50;99.90;;;;;;5016738;28;20042;-92
2022/03/07 01:18:32;;;;;;;31.73;20.00;;;2.30;99.90;;;;;;5036493;28;20371;-90
2022/03/07 01:20:58;;;;;;;30.77;20.55;;;2.10;99.90;;;;;;5036707;28;20025;-92
2022/03/07 01:23:24;;;;;;;31.60;20.73;;;2.20;99.90;;;;;;5036869;28;20034;-92
2022/03/07 01:25:49;;;;;;;30.48;20.70;;;2.20;99.90;;;;;;5033847;28;21209;-92
2022/03/07 01:28:15;;;;;;;30.80;20.17;;;2.20;99.90;;;;;;5018612;28;20025;-92
2022/03/07 01:30:41;;;;;;;31.67;20.33;;;2.30;1.00;;;;;;5036610;28;20561;-91
2022/03/07 01:33:07;;;;;;;31.02;19.08;;;2.10;99.90;;;;;;5019000;28;20026;-91
2022/03/07 01:35:32;;;;;;;29.98;19.08;;;2.20;99.90;;;;;;5018528;28;20094;-92
2022/03/07 01:37:58;;;;;;;28.08;19.35;;;2.10;99.90;;;;;;5018905;28;20034;-92
2022/03/07 01:40:24;;;;;;;31.80;19.98;;;2.10;99.90;;;;;;5018842;28;20029;-91
2022/03/07 01:42:49;;;;;;;29.95;20.40;;;1.90;99.90;;;;;;5035701;28;20030;-92
2022/03/07 01:45:17;;;;;;;29.73;19.48;;;1.70;99.90;;;;;;5032083;28;20123;-91
2022/03/07 01:47:44;;;;;;;29.30;19.35;;;2.00;99.90;;;;;;5036092;28;20059;-91
2022/03/07 01:50:12;;;;;;;28.42;18.92;;;2.10;99.90;;;;;;5036356;28;20052;-91
2022/03/07 01:52:40;;;;;;;29.38;19.27;;;1.70;99.90;;;;;;5034907;28;20532;-91
2022/03/07 01:55:08;;;;;;;29.85;19.55;;;2.10;99.90;;;;;;5018332;28;20025;-91
2022/03/07 01:57:38;;;;;;;28.95;18.75;;;1.70;99.90;;;;;;5034069;28;20037;-92
2022/03/07 02:00:08;;;;;;;31.80;19.40;;;1.70;99.90;;;;;;5036255;28;20025;-92
2022/03/07 02:02:33;;;;;;;30.33;19.45;;;1.50;99.90;;;;;;5035669;28;20091;-91
2022/03/07 02:04:59;;;;;;;30.95;19.58;;;1.60;99.90;;;;;;5035914;28;20485;-91
2022/03/07 02:07:25;;;;;;;30.77;19.75;;;1.70;99.90;;;;;;5035715;28;20029;-91
2022/03/07 02:09:51;;;;;;;30.38;18.73;;;1.60;99.90;;;;;;5017567;28;20026;-91
2022/03/07 02:12:16;;;;;;;27.73;18.50;;;1.60;99.90;;;;;;5033257;28;20037;-92
2022/03/07 02:14:42;;;;;;;27.95;18.25;;;1.70;99.90;;;;;;5036039;28;20080;-92
2022/03/07 02:17:07;;;;;;;30.08;18.80;;;1.80;99.90;;;;;;5035886;28;20084;-91
2022/03/07 02:19:34;;;;;;;28.15;18.63;;;1.70;99.90;;;;;;5035601;28;20026;-92
2022/03/07 02:22:01;;;;;;;31.15;19.60;;;1.50;99.90;;;;;;5034276;28;20049;-92
2022/03/07 02:24:28;;;;;;;29.08;19.75;;;1.70;99.90;;;;;;5035661;28;20025;-91
2022/03/07 02:27:06;;;;;;;33.00;20.00;;;1.60;99.90;;;;;;5035599;28;20091;-91
2022/03/07 02:29:32;;;;;;;31.90;19.75;;;1.60;99.90;;;;;;5035616;28;20044;-92
2022/03/07 02:31:58;;;;;;;32.03;20.35;;;1.60;99.90;;;;;;5035692;28;20056;-92
2022/03/07 02:34:25;;;;;;;30.08;19.48;;;1.70;99.90;;;;;;5035190;28;20068;-92
2022/03/07 02:36:51;;;;;;;29.80;19.58;;;1.70;99.90;;;;;;5034735;28;20395;-92
2022/03/07 02:39:17;;;;;;;31.80;19.83;;;1.70;99.90;;;;;;5017533;28;20028;-91
2022/03/07 02:41:43;;;;;;;30.15;19.67;;;1.70;99.90;;;;;;5017129;28;20114;-91
2022/03/07 02:44:09;;;;;;;30.92;20.02;;;1.70;99.90;;;;;;5017644;28;20025;-92
2022/03/07 02:46:35;;;;;;;30.00;19.05;;;1.60;99.90;;;;;;5017347;28;20128;-92
2022/03/07 02:49:02;;;;;;;29.75;19.83;;;1.70;99.90;;;;;;5035365;28;20108;-91
2022/03/07 02:51:28;;;;;;;30.27;19.45;;;1.70;99.90;;;;;;5035181;28;20517;-91
2022/03/07 02:53:53;;;;;;;28.50;19.20;;;1.50;99.90;;;;;;5034776;28;20057;-92
2022/03/07 02:56:19;;;;;;;28.55;20.05;;;1.10;99.90;;;;;;5034932;28;20033;-91
2022/03/07 02:58:45;;;;;;;28.05;18.67;;;1.20;99.90;;;;;;5038471;28;20052;-92
2022/03/07 03:01:11;;;;;;;31.65;19.27;;;1.30;99.90;;;;;;5017470;28;20569;-91
2022/03/07 03:03:36;;;;;;;31.83;20.50;;;1.20;99.90;;;;;;5034735;28;20034;-92
2022/03/07 03:06:02;;;;;;;30.65;20.70;;;1.30;99.90;;;;;;5034662;28;20021;-92
2022/03/07 03:08:28;;;;;;;29.27;19.55;;;1.40;99.90;;;;;;5034836;28;20051;-92
2022/03/07 03:10:58;;;;;;;32.65;20.50;;;1.30;99.90;;;;;;5033956;28;20486;-92
2022/03/07 03:13:24;;;;;;;30.88;20.30;;;1.10;99.90;;;;;;5035122;28;20033;-92
2022/03/07 03:15:51;;;;;;;29.30;19.27;;;1.10;99.90;;;;;;5034929;28;20120;-92
2022/03/07 03:18:18;;;;;;;32.55;19.75;;;1.10;99.90;;;;;;5034478;28;20041;-91
2022/03/07 03:20:45;;;;;;;32.25;18.63;;;1.00;99.90;;;;;;5034104;28;20025;-92
2022/03/07 03:23:11;;;;;;;28.65;19.08;;;0.90;99.90;;;;;;5034576;28;20033;-92
2022/03/07 03:25:37;;;;;;;28.45;19.00;;;0.90;99.90;;;;;;5016742;28;20393;-92
2022/03/07 03:28:03;;;;;;;30.15;19.00;;;1.00;99.90;;;;;;5034861;28;20029;-92
2022/03/07 03:30:29;;;;;;;35.58;21.20;;;1.10;99.90;;;;;;5034473;28;20033;-92
2022/03/07 03:32:54;;;;;;;31.15;19.15;;;1.20;99.90;;;;;;5034142;28;20057;-91
2022/03/07 03:35:20;;;;;;;31.40;19.90;;;1.20;1.00;;;;;;5006486;28;20041;-92
2022/03/07 03:37:46;;;;;;;26.30;17.85;;;1.30;99.90;;;;;;5019822;28;20485;-92
2022/03/07 03:40:12;;;;;;;31.38;19.48;;;1.20;1.00;;;;;;5033420;28;20024;-92
2022/03/07 03:42:38;;;;;;;31.70;19.27;;;0.80;99.90;;;;;;5034412;28;20521;-91
2022/03/07 03:45:08;;;;;;;31.67;19.95;;;0.90;99.90;;;;;;5033681;28;20021;-91
2022/03/07 03:47:34;;;;;;;32.30;19.90;;;1.00;99.90;;;;;;5034205;28;20374;-92
2022/03/07 03:50:00;;;;;;;32.15;20.02;;;1.00;1.00;;;;;;5033597;28;20037;-92
2022/03/07 03:52:26;;;;;;;31.50;20.33;;;0.80;99.90;;;;;;5031027;28;20034;-91
2022/03/07 03:54:52;;;;;;;30.58;19.33;;;0.70;99.90;;;;;;5014451;28;20026;-91
2022/03/07 03:57:18;;;;;;;31.98;19.90;;;0.70;1.00;;;;;;5033833;28;20077;-92
2022/03/07 03:59:43;;;;;;;31.58;20.33;;;0.70;99.90;;;;;;5016494;28;20024;-91
2022/03/07 04:02:09;;;;;;;34.40;20.40;;;0.80;99.90;;;;;;5033734;28;20482;-91
2022/03/07 04:04:35;;;;;;;32.53;20.20;;;0.80;99.90;;;;;;5033992;28;20104;-92
2022/03/07 04:07:01;;;;;;;33.28;19.48;;;0.80;99.90;;;;;;5033409;28;20029;-91
2022/03/07 04:09:26;;;;;;;31.38;20.25;;;0.80;99.90;;;;;;5033313;28;20025;-92
2022/03/07 04:11:54;;;;;;;32.05;19.48;;;0.90;99.90;;;;;;5034099;28;20033;-92
2022/03/07 04:14:20;;;;;;;27.52;18.77;;;1.00;99.90;;;;;;5033693;28;20022;-91
2022/03/07 04:16:46;;;;;;;32.45;19.92;;;0.90;99.90;;;;;;5029512;28;20037;-92
2022/03/07 04:19:12;;;;;;;32.78;19.70;;;0.60;99.90;;;;;;5033420;28;20152;-92
2022/03/07 04:21:39;;;;;;;31.25;19.27;;;0.80;99.90;;;;;;5032905;28;20528;-92
2022/03/07 04:24:06;;;;;;;31.08;19.60;;;0.70;1.00;;;;;;5033612;28;20034;-91
2022/03/07 04:26:32;;;;;;;31.02;19.60;;;0.60;1.00;;;;;;5033761;28;20021;-92
2022/03/07 04:28:59;;;;;;;28.83;19.48;;;0.60;99.90;;;;;;5033425;28;20048;-91
2022/03/07 04:31:26;;;;;;;31.58;19.73;;;0.50;99.90;;;;;;5015783;28;20029;-92
2022/03/07 04:33:52;;;;;;;30.75;20.23;;;0.40;1.00;;;;;;5033237;28;20058;-91
2022/03/07 04:36:19;;;;;;;30.17;19.63;;;0.30;1.00;;;;;;5033180;28;20069;-92
2022/03/07 04:38:45;;;;;;;33.53;21.35;;;0.50;99.90;;;;;;5020414;28;20068;-92
2022/03/07 04:41:10;;;;;;;32.67;20.50;;;0.60;1.00;;;;;;4996267;28;20116;-92
2022/03/07 04:43:36;;;;;;;33.30;19.90;;;0.40;99.90;;;;;;4999873;28;20494;-92
2022/03/07 04:46:02;;;;;;;31.40;19.02;;;0.30;99.90;;;;;;5033676;28;20033;-92
2022/03/07 04:48:28;;;;;;;30.95;20.13;;;0.50;99.90;;;;;;5015569;28;20064;-91
2022/03/07 04:50:53;;;;;;;31.50;19.90;;;0.60;99.90;;;;;;5014539;28;20030;-92
2022/03/07 04:53:19;;;;;;;32.40;19.70;;;0.60;99.90;;;;;;5032928;28;20094;-92
2022/03/07 04:55:45;;;;;;;32.22;21.17;;;0.60;99.90;;;;;;5033127;28;20034;-92
2022/03/07 04:58:10;;;;;;;36.47;19.98;;;0.50;99.90;;;;;;5033298;28;20030;-91
2022/03/07 05:00:36;;;;;;;32.70;20.40;;;0.40;1.00;;;;;;5015688;28;20086;-91
2022/03/07 05:03:02;;;;;;;33.92;20.73;;;0.50;99.90;;;;;;5033676;28;20025;-92
2022/03/07 05:05:27;;;;;;;32.03;19.73;;;0.50;1.00;;;;;;5014724;28;20040;-92
2022/03/07 05:07:53;;;;;;;32.85;19.77;;;0.50;1.00;;;;;;5032831;28;20115;-92
2022/03/07 05:10:20;;;;;;;33.03;19.83;;;0.80;99.90;;;;;;5015821;28;20102;-91
2022/03/07 05:12:49;;;;;;;30.45;20.08;;;0.50;1.00;;;;;;5032841;28;20081;-92
2022/03/07 05:15:15;;;;;;;34.33;20.13;;;0.40;1.00;;;;;;5015258;28;20017;-92
2022/03/07 05:17:51;;;;;;;31.00;18.98;;;0.30;99.90;;;;;;5033057;28;20034;-91
2022/03/07 05:20:17;;;;;;;34.25;20.15;;;0.50;1.00;;;;;;5032773;28;20025;-91
2022/03/07 05:22:44;;;;;;;32.53;20.13;;;0.30;1.00;;;;;;5011965;28;20050;-92
2022/03/07 05:25:11;;;;;;;31.65;20.02;;;0.00;1.00;;;;;;5013079;28;20505;-92
2022/03/07 05:27:38;;;;;;;32.70;20.27;;;0.00;1.00;;;;;;5015026;28;20030;-92
2022/03/07 05:30:05;;;;;;;32.83;19.50;;;0.20;1.00;;;;;;5016653;28;20034;-91
2022/03/07 05:32:31;;;;;;;30.33;19.40;;;0.30;1.00;;;;;;5016987;28;20030;-91
2022/03/07 05:34:58;;;;;;;31.95;19.88;;;0.10;1.00;;;;;;5010072;28;20030;-92
2022/03/07 05:37:24;;;;;;;31.00;19.27;;;0.10;99.90;;;;;;4997250;28;20462;-92
2022/03/07 05:39:50;;;;;;;31.45;19.50;;;0.00;1.00;;;;;;5017112;28;20030;-92
2022/03/07 05:42:15;;;;;;;30.75;19.38;;;0.10;1.00;;;;;;5015170;28;20781;-92
2022/03/07 05:44:41;;;;;;;35.88;20.42;;;-0.10;99.90;;;;;;5015147;28;20028;-92
2022/03/07 05:47:07;;;;;;;34.97;20.73;;;-0.20;99.90;;;;;;5015018;28;20037;-92
2022/03/07 05:49:32;;;;;;;35.55;21.17;;;-0.20;99.90;;;;;;5014885;28;20026;-90
2022/03/07 05:51:58;;;;;;;37.83;21.73;;;0.00;99.90;;;;;;5016405;28;20145;-92
2022/03/07 05:54:24;;;;;;;34.45;22.02;;;0.10;99.90;;;;;;5015516;28;20022;-91
2022/03/07 05:56:49;;;;;;;35.35;19.67;;;0.20;99.90;;;;;;5017109;28;20136;-91
2022/03/07 05:59:15;;;;;;;33.47;19.90;;;0.00;99.90;;;;;;5014919;28;20021;-91
2022/03/07 06:01:41;;;;;;;36.53;20.75;;;0.00;99.90;;;;;;5016200;28;20033;-92
2022/03/07 06:04:08;;;;;;;37.88;21.75;;;-0.20;99.90;;;;;;5014598;28;20025;-92
2022/03/07 06:06:34;;;;;;;38.13;21.73;;;-0.10;99.90;;;;;;5012102;28;20092;-92
2022/03/07 06:09:00;;;;;;;36.53;21.30;;;-0.20;1.00;;;;;;5016332;28;20026;-92
2022/03/07 06:11:25;;;;;;;36.22;20.95;;;-0.30;99.90;;;;;;5015536;28;20040;-90
2022/03/07 06:13:51;;;;;;;36.95;21.15;;;-0.20;99.90;;;;;;5013805;28;20037;-91
2022/03/07 06:16:17;;;;;;;33.38;20.35;;;-0.20;99.90;;;;;;5014145;28;20037;-91
2022/03/07 06:18:42;;;;;;;33.35;21.35;;;-0.30;1.00;;;;;;5014618;28;20041;-94
2022/03/07 06:21:08;;;;;;;34.67;20.73;;;-0.30;99.90;;;;;;5018478;28;20057;-94
2022/03/07 06:23:34;;;;;;;37.67;20.83;;;-0.20;1.00;;;;;;5035783;28;20159;-91
2022/03/07 06:26:00;;;;;;;36.60;20.15;;;-0.30;99.90;;;;;;5035113;28;20160;-92
2022/03/07 06:28:25;;;;;;;34.80;21.45;;;-0.40;99.90;;;;;;5034009;28;20056;-91
2022/03/07 06:30:51;;;;;;;33.75;20.45;;;-0.40;1.00;;;;;;5015425;28;20025;-93
2022/03/07 06:33:17;;;;;;;34.20;20.02;;;-0.30;1.00;;;;;;5015858;28;20030;-94
2022/03/07 06:35:43;;;;;;;36.22;21.35;;;-0.30;1.00;;;;;;5016554;28;20093;-93
2022/03/07 06:38:09;;;;;;;33.30;21.27;;;-0.30;1.00;;;;;;5015463;28;20075;-92
2022/03/07 06:40:34;;;;;;;41.25;22.60;;;-0.20;1.00;;;;;;5015081;28;20022;-92
2022/03/07 06:43:01;;;;;;;38.08;21.55;;;-0.10;1.00;;;;;;5015408;28;20029;-92
2022/03/07 06:45:28;;;;;;;37.00;21.95;;;0.00;1.00;;;;;;5015510;28;20026;-91
2022/03/07 06:47:54;;;;;;;38.28;21.85;;;0.10;1.00;;;;;;5013992;28;20061;-91
2022/03/07 06:50:20;;;;;;;34.58;21.23;;;0.10;1.00;;;;;;5018303;28;20018;-92
2022/03/07 06:52:45;;;;;;;35.80;20.63;;;0.20;1.00;;;;;;5014725;28;20084;-91
2022/03/07 06:55:12;;;;;;;39.30;20.83;;;0.20;1.00;;;;;;5014245;28;20026;-90
2022/03/07 06:57:39;;;;;;;40.25;21.50;;;0.10;1.00;;;;;;5016231;28;20041;-91
2022/03/07 07:00:08;;;;;;;53.17;28.45;;;0.20;1.00;;;;;;5016143;28;20071;-90
2022/03/07 07:02:34;;;;;;;53.25;29.63;;;0.10;1.00;;;;;;5016472;28;20088;-92
2022/03/07 07:05:03;;;;;;;49.00;28.55;;;0.40;1.00;;;;;;5014684;28;20022;-92
2022/03/07 07:07:30;;;;;;;51.05;31.08;;;0.30;1.00;;;;;;5017342;28;20037;-91
2022/03/07 07:09:56;;;;;;;57.78;33.15;;;0.40;1.00;;;;;;5019831;28;20040;-92
2022/03/07 07:12:22;;;;;;;57.92;33.55;;;0.50;1.00;;;;;;5017300;28;20045;-90
2022/03/07 07:14:48;;;;;;;57.67;31.40;;;0.50;1.00;;;;;;5025809;28;20033;-93
2022/03/07 07:17:14;;;;;;;60.15;34.58;;;0.70;99.90;;;;;;5023579;28;20045;-91
2022/03/07 07:19:40;;;;;;;54.30;28.35;;;0.70;1.00;;;;;;5014634;28;20092;-92
2022/03/07 07:22:06;;;;;;;39.65;24.05;;;0.70;1.00;;;;;;5025909;28;20049;-92
2022/03/07 07:24:31;;;;;;;38.60;22.48;;;0.90;99.90;;;;;;5027883;28;20029;-93
2022/03/07 07:26:57;;;;;;;40.80;21.90;;;1.00;99.90;;;;;;5033912;28;20029;-92
2022/03/07 07:29:25;;;;;;;34.75;20.92;;;1.00;99.90;;;;;;5019625;28;20500;-92
2022/03/07 07:31:53;;;;;;;35.95;21.33;;;0.90;1.00;;;;;;5033986;28;20481;-92
2022/03/07 07:34:20;;;;;;;34.03;19.90;;;1.10;1.00;;;;;;5034174;28;20450;-93
2022/03/07 07:36:46;;;;;;;29.67;19.10;;;1.30;1.00;;;;;;5034265;28;20044;-93
2022/03/07 07:39:11;;;;;;;33.17;21.35;;;1.30;1.00;;;;;;5033678;28;20025;-92
2022/03/07 07:41:37;;;;;;;31.88;20.88;;;1.40;99.90;;;;;;5034158;28;20040;-91
2022/03/07 07:44:03;;;;;;;33.20;21.05;;;1.40;99.90;;;;;;5030117;28;20026;-89
2022/03/07 07:46:29;;;;;;;38.80;21.17;;;1.50;99.90;;;;;;5028753;28;20509;-90
2022/03/07 07:48:54;;;;;;;33.22;21.27;;;2.30;99.90;;;;;;5031951;28;20025;-88
2022/03/07 07:51:20;;;;;;;34.60;21.58;;;2.80;99.90;;;;;;5016581;28;20061;-87
2022/03/07 07:53:46;;;;;;;34.75;21.75;;;2.80;99.90;;;;;;5031506;28;20022;-88
2022/03/07 07:56:12;;;;;;;32.05;21.05;;;2.80;99.90;;;;;;5031393;28;20042;-88
2022/03/07 07:58:38;;;;;;;34.72;21.63;;;2.90;99.90;;;;;;5031645;28;20021;-88
2022/03/07 08:01:03;;;;;;;32.75;21.38;;;3.00;99.90;;;;;;5031718;28;20042;-90
2022/03/07 08:03:29;;;;;;;32.65;21.08;;;3.20;99.90;;;;;;5016202;28;20115;-91
2022/03/07 08:05:55;;;;;;;37.63;22.17;;;3.20;99.90;;;;;;5032036;28;20030;-90
2022/03/07 08:08:21;;;;;;;33.25;21.17;;;3.30;99.90;;;;;;5032451;28;20033;-89
2022/03/07 08:10:46;;;;;;;37.55;20.98;;;3.30;99.90;;;;;;5015385;28;20052;-89
2022/03/07 08:13:12;;;;;;;32.55;20.58;;;3.40;99.90;;;;;;5014752;28;20029;-91
2022/03/07 08:15:40;;;;;;;31.48;20.83;;;3.70;99.90;;;;;;5031484;28;20026;-90
2022/03/07 08:18:06;;;;;;;31.88;20.35;;;3.60;99.90;;;;;;5016571;28;20083;-90
2022/03/07 08:20:32;;;;;;;37.35;20.67;;;3.70;99.90;;;;;;5014745;28;20083;-89
2022/03/07 08:22:58;;;;;;;35.25;20.00;;;3.90;99.90;;;;;;5031170;28;20053;-90
2022/03/07 08:25:24;;;;;;;30.48;19.92;;;3.90;99.90;;;;;;5031414;28;20474;-91
2022/03/07 08:27:50;;;;;;;30.92;20.67;;;4.20;99.90;;;;;;5014530;28;20052;-89
2022/03/07 08:30:18;;;;;;;30.52;20.63;;;4.30;99.90;;;;;;5014720;28;20029;-90
2022/03/07 08:32:44;;;;;;;31.35;20.75;;;4.50;99.90;;;;;;5016544;28;20029;-94
2022/03/07 08:35:11;;;;;;;28.38;19.88;;;4.80;99.90;;;;;;5031766;28;20029;-91
2022/03/07 08:37:37;;;;;;;32.72;20.45;;;4.70;99.90;;;;;;5015359;28;20037;-88
2022/03/07 08:40:05;;;;;;;28.42;19.67;;;4.60;99.90;;;;;;5032130;28;20060;-89
2022/03/07 08:42:31;;;;;;;29.23;20.05;;;4.80;99.90;;;;;;5030467;28;20060;-89
2022/03/07 08:44:57;;;;;;;27.85;19.63;;;4.90;99.90;;;;;;5031362;28;20026;-80
2022/03/07 08:47:23;;;;;;;29.90;19.30;;;5.20;99.90;;;;;;5032217;28;20018;-90
2022/03/07 08:49:49;;;;;;;29.55;19.75;;;6.10;99.90;;;;;;5032324;28;20099;-89
2022/03/07 08:52:15;;;;;;;31.45;19.00;;;7.60;99.90;;;;;;5033175;28;20005;-91
2022/03/07 08:54:44;;;;;;;31.80;20.40;;;8.80;99.90;;;;;;5032042;28;20034;-89
2022/03/07 08:57:10;;;;;;;28.27;19.05;;;9.80;99.90;;;;;;5032002;28;20044;-87
2022/03/07 08:59:36;;;;;;;27.83;20.02;;;10.20;99.90;;;;;;5031520;28;20022;-92
2022/03/07 09:02:03;;;;;;;26.83;20.40;;;10.60;99.90;;;;;;5033889;28;20033;-93
2022/03/07 09:04:29;;;;;;;27.52;20.33;;;10.80;99.90;;;;;;5035748;28;20026;-88
2022/03/07 09:06:55;;;;;;;28.35;21.25;;;11.20;99.90;;;;;;5035629;28;20074;-89
2022/03/07 09:09:21;;;;;;;28.63;21.60;;;11.40;99.90;;;;;;5035329;28;20037;-90
2022/03/07 09:11:47;;;;;;;25.63;20.35;;;12.10;99.90;;;;;;5034870;28;20550;-90
2022/03/07 09:14:13;;;;;;;27.92;22.05;;;12.30;99.90;;;;;;5035660;28;20105;-89
2022/03/07 09:16:39;;;;;;;29.10;22.25;;;12.70;99.90;;;;;;5017646;28;20042;-90
2022/03/07 09:19:05;;;;;;;29.40;22.13;;;13.20;99.90;;;;;;5035831;28;20091;-89
2022/03/07 09:21:31;;;;;;;24.90;21.40;;;13.40;99.90;;;;;;5035623;28;20049;-92
2022/03/07 09:23:57;;;;;;;26.23;22.42;;;13.30;99.90;;;;;;5034856;28;20091;-87
2022/03/07 09:26:23;;;;;;;27.90;23.23;;;14.00;99.90;;;;;;5018179;28;20073;-89
2022/03/07 09:28:48;;;;;;;26.30;22.25;;;14.30;99.90;;;;;;5018535;28;20397;-88
2022/03/07 09:31:14;;;;;;;27.13;22.92;;;14.10;99.90;;;;;;5017472;28;20461;-90
2022/03/07 09:33:40;;;;;;;25.05;22.33;;;14.00;99.90;;;;;;5014566;28;20116;-90
2022/03/07 09:36:06;;;;;;;25.83;22.77;;;14.50;99.90;;;;;;5034215;28;20032;-88
2022/03/07 09:38:34;;;;;;;25.60;22.77;;;14.80;99.90;;;;;;5034519;28;20402;-91
2022/03/07 09:41:01;;;;;;;27.35;23.83;;;15.00;99.90;;;;;;5034651;28;20053;-88
2022/03/07 09:43:27;;;;;;;26.50;23.63;;;15.10;99.90;;;;;;5034779;28;20525;-89
2022/03/07 09:45:53;;;;;;;26.98;23.67;;;15.40;99.90;;;;;;5035131;28;20033;-89
2022/03/07 09:48:21;;;;;;;28.70;24.65;;;15.60;99.90;;;;;;5033988;28;20093;-89
2022/03/07 09:50:47;;;;;;;26.63;23.77;;;15.80;99.90;;;;;;5033834;28;20025;-89
2022/03/07 09:53:13;;;;;;;27.63;24.45;;;15.80;99.90;;;;;;5034199;28;20378;-88
2022/03/07 09:55:40;;;;;;;27.08;24.23;;;16.10;99.90;;;;;;5033319;28;20044;-89
2022/03/07 09:58:07;;;;;;;28.55;24.65;;;16.00;99.90;;;;;;5016882;28;20032;-89
2022/03/07 10:00:33;;;;;;;27.95;25.05;;;16.30;99.90;;;;;;5033923;28;20026;-89
2022/03/07 10:03:02;;;;;;;27.38;24.52;;;16.20;99.90;;;;;;5033748;28;20679;-89
2022/03/07 10:05:46;;;;;;;28.23;25.17;;;16.60;99.90;;;;;;5033479;28;20018;-89
2022/03/07 10:08:24;;;;;;;27.17;24.33;;;16.00;99.90;;;;;;5017543;28;20069;-89
2022/03/07 10:10:52;;;;;;;28.05;24.67;;;16.90;99.90;;;;;;5033315;28;20060;-89
2022/03/07 10:13:17;;;;;;;28.55;25.40;;;17.30;99.90;;;;;;5033376;28;20034;-89
2022/03/07 10:15:43;;;;;;;29.02;25.85;;;18.00;99.90;;;;;;5033895;28;20111;-89
2022/03/07 10:18:16;;;;;;;27.20;24.30;;;18.10;99.90;;;;;;5033987;28;20034;-89
2022/03/07 10:20:54;;;;;;;27.27;24.50;;;18.60;99.90;;;;;;5033231;28;20100;-89
2022/03/07 10:23:20;;;;;;;27.58;24.63;;;19.10;99.90;;;;;;5033314;28;20049;-89
2022/03/07 10:25:46;;;;;;;27.48;24.60;;;18.90;99.90;;;;;;5016120;28;20034;-89
2022/03/07 10:28:13;;;;;;;28.42;25.48;;;18.50;99.90;;;;;;5016317;28;20140;-89
2022/03/07 10:30:39;;;;;;;29.45;25.38;;;19.20;99.90;;;;;;5033886;28;20109;-89
2022/03/07 10:33:10;;;;;;;26.73;24.02;;;19.80;99.90;;;;;;5018626;28;20057;-90
2022/03/07 10:35:41;;;;;;;27.95;25.25;;;19.50;99.90;;;;;;5032748;28;20079;-90
2022/03/07 10:38:16;;;;;;;28.88;25.90;;;20.80;99.90;;;;;;5033031;28;20120;-90
2022/03/07 10:40:44;;;;;;;27.23;24.08;;;20.80;99.90;;;;;;5011408;28;20022;-89
2022/03/07 10:43:12;;;;;;;27.75;25.05;;;21.20;99.90;;;;;;5033855;28;20537;-89
2022/03/07 10:45:48;;;;;;;29.60;26.60;;;20.50;99.90;;;;;;5033215;28;20072;-91
2022/03/07 10:48:14;;;;;;;29.40;25.17;;;20.70;99.90;;;;;;5032517;28;20026;-90
2022/03/07 10:50:46;;;;;;;28.42;25.67;;;20.90;99.90;;;;;;5032990;28;20040;-90
2022/03/07 10:53:11;;;;;;;27.70;24.73;;;20.40;99.90;;;;;;5016976;28;20024;-94
2022/03/07 10:55:37;;;;;;;27.02;24.33;;;21.10;99.90;;;;;;5033922;28;20037;-95
2022/03/07 10:58:12;;;;;;;28.25;25.45;;;21.30;99.90;;;;;;5017795;28;20505;-92
2022/03/07 11:00:48;;;;;;;27.00;24.40;;;21.90;99.90;;;;;;5035021;28;20478;-94
2022/03/07 11:03:25;;;;;;;27.13;24.50;;;22.20;99.90;;;;;;5034325;28;20056;-94
2022/03/07 11:05:52;;;;;;;27.10;24.48;;;22.00;99.90;;;;;;5033984;28;20026;-93
2022/03/07 11:08:20;;;;;;;28.05;25.35;;;22.20;99.90;;;;;;5033325;28;20036;-93
2022/03/07 11:10:48;;;;;;;28.73;26.05;;;22.50;99.90;;;;;;5034362;28;20033;-94
2022/03/07 11:13:15;;;;;;;28.45;25.75;;;22.60;99.90;;;;;;5033885;28;20045;-96
2022/03/07 11:15:46;;;;;;;28.83;26.02;;;22.50;99.90;;;;;;5030903;28;20056;-92
2022/03/07 11:18:15;;;;;;;28.35;25.65;;;21.80;99.90;;;;;;5016092;28;20108;-91
2022/03/07 11:20:43;;;;;;;27.90;25.20;;;23.00;99.90;;;;;;5018157;28;20501;-93
2022/03/07 11:23:11;;;;;;;29.50;26.52;;;22.60;99.90;;;;;;5016415;28;20045;-92
2022/03/07 11:25:39;;;;;;;28.58;25.77;;;22.40;99.90;;;;;;5017386;28;20060;-95
2022/03/07 11:28:05;;;;;;;28.00;25.42;;;22.60;99.90;;;;;;5037169;28;20029;-94
2022/03/07 11:30:42;;;;;;;28.55;26.00;;;22.80;99.90;;;;;;5035639;28;20033;-95
2022/03/07 11:33:09;;;;;;;28.73;25.92;;;22.20;99.90;;;;;;5019089;28;20040;-93
2022/03/07 11:35:35;;;;;;;28.00;25.30;;;22.40;99.90;;;;;;5033110;28;20079;-92
2022/03/07 11:38:15;;;;;;;28.27;25.50;;;20.90;99.90;;;;;;5014977;28;20037;-94
2022/03/07 11:41:07;;;;;;;27.35;24.85;;;20.90;99.90;;;;;;5017508;28;20029;-90
2022/03/07 11:43:35;;;;;;;27.13;24.63;;;22.70;99.90;;;;;;5034403;28;20136;-94
2022/03/07 11:46:03;;;;;;;27.63;25.05;;;24.30;99.90;;;;;;5034191;28;20030;-94
2022/03/07 11:48:47;;;;;;;28.38;25.73;;;23.70;99.90;;;;;;5032574;28;20033;-93
2022/03/07 11:51:27;;;;;;;27.73;25.25;;;23.30;99.90;;;;;;5018152;28;20029;-96
2022/03/07 11:53:54;;;;;;;26.92;24.42;;;21.50;99.90;;;;;;5029211;28;20040;-95
2022/03/07 11:56:27;;;;;;;26.55;24.05;;;22.50;99.90;;;;;;5034007;28;20088;-96
2022/03/07 11:58:55;;;;;;;26.77;24.25;;;23.60;99.90;;;;;;5033561;28;20030;-96
2022/03/07 12:01:23;;;;;;;26.17;23.77;;;24.20;99.90;;;;;;5032575;28;20065;-89
2022/03/07 12:03:49;;;;;;;27.00;24.55;;;24.60;99.90;;;;;;5031257;28;20028;-93
2022/03/07 12:06:18;;;;;;;27.80;24.90;;;24.50;99.90;;;;;;5032491;28;20040;-91
2022/03/07 12:08:45;;;;;;;27.40;24.80;;;24.70;99.90;;;;;;5032370;28;20040;-91
2022/03/07 12:11:25;;;;;;;27.75;25.10;;;25.40;99.90;;;;;;5016318;28;20026;-92
2022/03/07 12:13:52;;;;;;;27.88;25.27;;;24.70;99.90;;;;;;5018555;28;20022;-93
2022/03/07 12:16:35;;;;;;;27.20;24.77;;;23.80;99.90;;;;;;5032502;28;20029;-92
2022/03/07 12:19:11;;;;;;;27.17;24.77;;;25.10;99.90;;;;;;5014440;28;20021;-91
2022/03/07 12:21:41;;;;;;;27.38;24.98;;;23.30;99.90;;;;;;5031208;28;20383;-91
2022/03/07 12:24:12;;;;;;;27.63;25.02;;;22.50;99.90;;;;;;5017187;28;20539;-92
2022/03/07 12:26:44;;;;;;;28.52;25.83;;;24.20;99.90;;;;;;5031716;28;20018;-92
2022/03/07 12:29:10;;;;;;;27.77;25.17;;;24.10;99.90;;;;;;5031749;28;20029;-92
2022/03/07 12:31:36;;;;;;;27.00;24.42;;;24.90;99.90;;;;;;5031490;28;20033;-92
2022/03/07 12:34:03;;;;;;;27.77;25.27;;;25.20;99.90;;;;;;5014847;28;20029;-92